sensor_id;sensor_type;location;lat;lon;timestamp;pressure;altitude;pressure_sealevel;temperature;humidity
71976;BME280;68326;52.124;5.424;2023-07-29T00:00:02;100759.22;;;17.40;100.00
71976;BME280;68326;52.124;5.424;2023-07-29T00:02:29;100755.75;;;17.39;100.00
71976;BME280;68326;52.124;5.424;2023-07-29T00:04:57;100752.66;;;17.34;100.00
71976;BME280;68326;52.124;5.424;2023-07-29T00:07:23;100749.19;;;17.33;100.00
71976;BME280;68326;52.124;5.424;2023-07-29T00:09:50;100737.94;;;17.31;100.00
71976;BME280;68326;52.124;5.424;2023-07-29T00:12:16;100742.75;;;17.26;100.00
71976;BME280;68326;52.124;5.424;2023-07-29T00:14:43;100739.78;;;17.20;100.00
71976;BME280;68326;52.124;5.424;2023-07-29T00:17:09;100730.47;;;17.16;100.00
71976;BME280;68326;52.124;5.424;2023-07-29T00:19:36;100729.88;;;17.12;100.00
71976;BME280;68326;52.124;5.424;2023-07-29T00:22:03;100729.28;;;17.08;100.00
71976;BME280;68326;52.124;5.424;2023-07-29T00:24:30;100724.53;;;17.02;100.00
71976;BME280;68326;52.124;5.424;2023-07-29T00:26:57;100722.00;;;17.01;100.00
71976;BME280;68326;52.124;5.424;2023-07-29T00:29:23;100722.22;;;16.98;100.00
71976;BME280;68326;52.124;5.424;2023-07-29T00:31:50;100711.72;;;16.98;100.00
71976;BME280;68326;52.124;5.424;2023-07-29T00:34:16;100696.44;;;16.91;100.00
71976;BME280;68326;52.124;5.424;2023-07-29T00:36:46;100699.31;;;16.88;100.00
71976;BME280;68326;52.124;5.424;2023-07-29T00:39:12;100696.69;;;16.88;100.00
71976;BME280;68326;52.124;5.424;2023-07-29T00:41:39;100704.69;;;16.87;100.00
71976;BME280;68326;52.124;5.424;2023-07-29T00:44:06;100722.50;;;16.83;100.00
71976;BME280;68326;52.124;5.424;2023-07-29T00:46:34;100719.25;;;16.80;100.00
71976;BME280;68326;52.124;5.424;2023-07-29T00:49:01;100727.88;;;16.82;100.00
71976;BME280;68326;52.124;5.424;2023-07-29T00:51:28;100718.91;;;16.84;100.00
71976;BME280;68326;52.124;5.424;2023-07-29T00:53:55;100723.69;;;16.90;100.00
71976;BME280;68326;52.124;5.424;2023-07-29T00:56:21;100718.88;;;16.96;100.00
71976;BME280;68326;52.124;5.424;2023-07-29T00:58:48;100708.97;;;16.99;100.00
71976;BME280;68326;52.124;5.424;2023-07-29T01:01:15;100703.13;;;16.96;100.00
71976;BME280;68326;52.124;5.424;2023-07-29T01:03:41;100702.19;;;16.97;100.00
71976;BME280;68326;52.124;5.424;2023-07-29T01:06:18;100699.44;;;16.98;100.00
71976;BME280;68326;52.124;5.424;2023-07-29T01:09:25;100705.41;;;17.00;100.00
71976;BME280;68326;52.124;5.424;2023-07-29T01:12:13;100699.66;;;16.95;100.00
71976;BME280;68326;52.124;5.424;2023-07-29T01:17:13;100709.38;;;16.83;100.00
71976;BME280;68326;52.124;5.424;2023-07-29T01:22:30;100707.31;;;16.76;100.00
71976;BME280;68326;52.124;5.424;2023-07-29T01:24:58;100705.03;;;16.71;100.00
71976;BME280;68326;52.124;5.424;2023-07-29T01:27:26;100706.25;;;16.67;100.00
71976;BME280;68326;52.124;5.424;2023-07-29T01:29:54;100703.97;;;16.62;100.00
71976;BME280;68326;52.124;5.424;2023-07-29T01:35:23;100705.78;;;16.62;100.00
71976;BME280;68326;52.124;5.424;2023-07-29T01:38:05;100704.81;;;16.63;100.00
71976;BME280;68326;52.124;5.424;2023-07-29T01:40:32;100712.09;;;16.59;100.00
71976;BME280;68326;52.124;5.424;2023-07-29T01:42:59;100709.44;;;16.59;100.00
71976;BME280;68326;52.124;5.424;2023-07-29T01:45:26;100700.75;;;16.59;100.00
71976;BME280;68326;52.124;5.424;2023-07-29T01:47:53;100698.38;;;16.56;100.00
71976;BME280;68326;52.124;5.424;2023-07-29T01:50:19;100696.94;;;16.51;100.00
71976;BME280;68326;52.124;5.424;2023-07-29T01:52:46;100691.53;;;16.53;100.00
71976;BME280;68326;52.124;5.424;2023-07-29T01:55:12;100691.44;;;16.55;100.00
71976;BME280;68326;52.124;5.424;2023-07-29T01:57:39;100694.56;;;16.60;100.00
71976;BME280;68326;52.124;5.424;2023-07-29T02:00:06;100695.94;;;16.64;100.00
71976;BME280;68326;52.124;5.424;2023-07-29T02:02:33;100682.59;;;16.67;100.00
71976;BME280;68326;52.124;5.424;2023-07-29T02:05:00;100691.19;;;16.69;100.00
71976;BME280;68326;52.124;5.424;2023-07-29T02:07:26;100679.72;;;16.70;100.00
71976;BME280;68326;52.124;5.424;2023-07-29T02:09:53;100683.19;;;16.70;100.00
71976;BME280;68326;52.124;5.424;2023-07-29T02:12:20;100682.22;;;16.71;100.00
71976;BME280;68326;52.124;5.424;2023-07-29T02:14:46;100686.41;;;16.74;100.00
71976;BME280;68326;52.124;5.424;2023-07-29T02:17:13;100678.66;;;16.73;100.00
71976;BME280;68326;52.124;5.424;2023-07-29T02:19:39;100682.94;;;16.74;100.00
71976;BME280;68326;52.124;5.424;2023-07-29T02:22:06;100669.81;;;16.74;100.00
71976;BME280;68326;52.124;5.424;2023-07-29T02:24:32;100674.94;;;16.75;100.00
71976;BME280;68326;52.124;5.424;2023-07-29T02:26:59;100671.34;;;16.76;100.00
71976;BME280;68326;52.124;5.424;2023-07-29T02:29:25;100673.97;;;16.76;100.00
71976;BME280;68326;52.124;5.424;2023-07-29T02:31:52;100666.94;;;16.77;100.00
71976;BME280;68326;52.124;5.424;2023-07-29T02:34:19;100672.06;;;16.78;100.00
71976;BME280;68326;52.124;5.424;2023-07-29T02:36:45;100668.50;;;16.79;100.00
71976;BME280;68326;52.124;5.424;2023-07-29T02:39:12;100679.84;;;16.80;100.00
71976;BME280;68326;52.124;5.424;2023-07-29T02:41:38;100668.38;;;16.81;100.00
71976;BME280;68326;52.124;5.424;2023-07-29T02:44:05;100669.09;;;16.83;100.00
71976;BME280;68326;52.124;5.424;2023-07-29T02:46:31;100668.97;;;16.84;100.00
71976;BME280;68326;52.124;5.424;2023-07-29T02:48:58;100668.97;;;16.84;100.00
71976;BME280;68326;52.124;5.424;2023-07-29T02:51:25;100664.69;;;16.83;100.00
71976;BME280;68326;52.124;5.424;2023-07-29T02:53:51;100665.53;;;16.84;100.00
71976;BME280;68326;52.124;5.424;2023-07-29T02:56:18;100664.56;;;16.85;100.00
71976;BME280;68326;52.124;5.424;2023-07-29T02:58:45;100655.72;;;16.86;100.00
71976;BME280;68326;52.124;5.424;2023-07-29T03:01:12;100651.56;;;16.83;100.00
71976;BME280;68326;52.124;5.424;2023-07-29T03:03:39;100654.91;;;16.85;100.00
71976;BME280;68326;52.124;5.424;2023-07-29T03:06:08;100658.34;;;16.86;100.00
71976;BME280;68326;52.124;5.424;2023-07-29T03:08:35;100668.88;;;16.86;100.00
71976;BME280;68326;52.124;5.424;2023-07-29T03:11:10;100651.28;;;16.86;100.00
71976;BME280;68326;52.124;5.424;2023-07-29T03:13:37;100643.78;;;16.82;100.00
71976;BME280;68326;52.124;5.424;2023-07-29T03:16:10;100646.28;;;16.83;100.00
71976;BME280;68326;52.124;5.424;2023-07-29T03:18:37;100637.91;;;16.78;100.00
71976;BME280;68326;52.124;5.424;2023-07-29T03:21:04;100641.34;;;16.79;100.00
71976;BME280;68326;52.124;5.424;2023-07-29T03:23:32;100645.78;;;16.78;100.00
71976;BME280;68326;52.124;5.424;2023-07-29T03:25:59;100644.94;;;16.78;100.00
71976;BME280;68326;52.124;5.424;2023-07-29T03:28:31;100649.50;;;16.76;100.00
71976;BME280;68326;52.124;5.424;2023-07-29T03:30:58;100652.13;;;16.76;100.00
71976;BME280;68326;52.124;5.424;2023-07-29T03:33:26;100649.75;;;16.73;100.00
71976;BME280;68326;52.124;5.424;2023-07-29T03:35:52;100649.50;;;16.76;100.00
71976;BME280;68326;52.124;5.424;2023-07-29T03:38:19;100654.63;;;16.77;100.00
71976;BME280;68326;52.124;5.424;2023-07-29T03:40:46;100646.88;;;16.76;100.00
71976;BME280;68326;52.124;5.424;2023-07-29T03:43:13;100647.84;;;16.75;100.00
71976;BME280;68326;52.124;5.424;2023-07-29T03:45:40;100652.22;;;16.74;100.00
71976;BME280;68326;52.124;5.424;2023-07-29T03:48:07;100635.63;;;16.74;100.00
71976;BME280;68326;52.124;5.424;2023-07-29T03:50:36;100655.72;;;16.75;100.00
71976;BME280;68326;52.124;5.424;2023-07-29T03:53:03;100653.31;;;16.71;100.00
71976;BME280;68326;52.124;5.424;2023-07-29T03:55:30;100655.34;;;16.68;100.00
71976;BME280;68326;52.124;5.424;2023-07-29T03:57:58;100657.97;;;16.68;100.00
71976;BME280;68326;52.124;5.424;2023-07-29T04:00:25;100666.94;;;16.65;100.00
71976;BME280;68326;52.124;5.424;2023-07-29T04:02:52;100664.56;;;16.62;100.00
71976;BME280;68326;52.124;5.424;2023-07-29T04:05:19;100663.97;;;16.59;100.00
71976;BME280;68326;52.124;5.424;2023-07-29T04:07:46;100658.59;;;16.60;100.00
71976;BME280;68326;52.124;5.424;2023-07-29T04:10:12;100654.16;;;16.61;100.00
71976;BME280;68326;52.124;5.424;2023-07-29T04:12:39;100662.88;;;16.61;100.00
71976;BME280;68326;52.124;5.424;2023-07-29T04:15:06;100662.16;;;16.59;100.00
71976;BME280;68326;52.124;5.424;2023-07-29T04:17:33;100667.19;;;16.62;100.00
71976;BME280;68326;52.124;5.424;2023-07-29T04:19:59;100657.78;;;16.60;100.00
71976;BME280;68326;52.124;5.424;2023-07-29T04:22:27;100655.97;;;16.60;100.00
71976;BME280;68326;52.124;5.424;2023-07-29T04:24:53;100642.94;;;16.59;100.00
71976;BME280;68326;52.124;5.424;2023-07-29T04:27:20;100644.50;;;16.61;100.00
71976;BME280;68326;52.124;5.424;2023-07-29T04:29:46;100643.78;;;16.59;100.00
71976;BME280;68326;52.124;5.424;2023-07-29T04:32:13;100643.78;;;16.59;100.00
71976;BME280;68326;52.124;5.424;2023-07-29T04:34:39;100661.22;;;16.60;100.00
71976;BME280;68326;52.124;5.424;2023-07-29T04:37:06;100656.78;;;16.61;100.00
71976;BME280;68326;52.124;5.424;2023-07-29T04:39:32;100657.63;;;16.61;100.00
71976;BME280;68326;52.124;5.424;2023-07-29T04:41:59;100658.47;;;16.62;100.00
71976;BME280;68326;52.124;5.424;2023-07-29T04:44:27;100647.97;;;16.62;100.00
71976;BME280;68326;52.124;5.424;2023-07-29T04:46:53;100656.53;;;16.64;100.00
71976;BME280;68326;52.124;5.424;2023-07-29T04:49:20;100654.88;;;16.63;100.00
71976;BME280;68326;52.124;5.424;2023-07-29T04:51:46;100659.31;;;16.62;100.00
71976;BME280;68326;52.124;5.424;2023-07-29T04:54:13;100656.78;;;16.61;100.00
71976;BME280;68326;52.124;5.424;2023-07-29T04:56:39;100654.28;;;16.59;100.00
71976;BME280;68326;52.124;5.424;2023-07-29T04:59:06;100658.72;;;16.59;100.00
71976;BME280;68326;52.124;5.424;2023-07-29T05:01:34;100660.63;;;16.57;100.00
71976;BME280;68326;52.124;5.424;2023-07-29T05:04:01;100663.97;;;16.59;100.00
71976;BME280;68326;52.124;5.424;2023-07-29T05:06:28;100670.03;;;16.59;100.00
71976;BME280;68326;52.124;5.424;2023-07-29T05:08:57;100670.75;;;16.61;100.00
71976;BME280;68326;52.124;5.424;2023-07-29T05:11:24;100665.84;;;16.68;100.00
71976;BME280;68326;52.124;5.424;2023-07-29T05:13:51;100672.78;;;16.69;100.00
71976;BME280;68326;52.124;5.424;2023-07-29T05:16:18;100674.59;;;16.68;100.00
71976;BME280;68326;52.124;5.424;2023-07-29T05:18:44;100676.13;;;16.71;100.00
71976;BME280;68326;52.124;5.424;2023-07-29T05:21:11;100677.34;;;16.67;100.00
71976;BME280;68326;52.124;5.424;2023-07-29T05:23:40;100674.72;;;16.67;100.00
71976;BME280;68326;52.124;5.424;2023-07-29T05:26:07;100679.84;;;16.68;100.00
71976;BME280;68326;52.124;5.424;2023-07-29T05:28:33;100685.81;;;16.70;100.00
71976;BME280;68326;52.124;5.424;2023-07-29T05:31:01;100680.19;;;16.75;100.00
71976;BME280;68326;52.124;5.424;2023-07-29T05:33:28;100676.59;;;16.76;100.00
71976;BME280;68326;52.124;5.424;2023-07-29T05:35:54;100677.31;;;16.78;100.00
71976;BME280;68326;52.124;5.424;2023-07-29T05:38:21;100685.72;;;16.83;100.00
71976;BME280;68326;52.124;5.424;2023-07-29T05:40:48;100692.75;;;16.83;100.00
71976;BME280;68326;52.124;5.424;2023-07-29T05:43:15;100697.66;;;16.87;100.00
71976;BME280;68326;52.124;5.424;2023-07-29T05:45:41;100695.50;;;16.92;100.00
71976;BME280;68326;52.124;5.424;2023-07-29T05:48:08;100708.38;;;16.96;100.00
71976;BME280;68326;52.124;5.424;2023-07-29T05:50:34;100700.16;;;17.00;100.00
71976;BME280;68326;52.124;5.424;2023-07-29T05:53:01;100694.63;;;17.03;100.00
71976;BME280;68326;52.124;5.424;2023-07-29T05:55:27;100695.22;;;17.07;100.00
71976;BME280;68326;52.124;5.424;2023-07-29T05:57:54;100694.25;;;17.08;100.00
71976;BME280;68326;52.124;5.424;2023-07-29T06:00:21;100693.16;;;17.10;100.00
71976;BME280;68326;52.124;5.424;2023-07-29T06:02:47;100688.78;;;17.11;100.00
71976;BME280;68326;52.124;5.424;2023-07-29T06:05:14;100692.13;;;17.13;100.00
71976;BME280;68326;52.124;5.424;2023-07-29T06:07:40;100690.06;;;17.17;100.00
71976;BME280;68326;52.124;5.424;2023-07-29T06:10:13;100689.69;;;17.21;100.00
71976;BME280;68326;52.124;5.424;2023-07-29T06:12:40;100692.78;;;17.26;100.00
71976;BME280;68326;52.124;5.424;2023-07-29T06:15:06;100694.09;;;17.32;100.00
71976;BME280;68326;52.124;5.424;2023-07-29T06:17:33;100685.81;;;17.37;100.00
71976;BME280;68326;52.124;5.424;2023-07-29T06:20:00;100680.84;;;17.55;100.00
71976;BME280;68326;52.124;5.424;2023-07-29T06:22:26;100679.13;;;17.65;100.00
71976;BME280;68326;52.124;5.424;2023-07-29T06:24:53;100685.28;;;17.75;99.29
71976;BME280;68326;52.124;5.424;2023-07-29T06:27:19;100679.28;;;17.84;98.53
71976;BME280;68326;52.124;5.424;2023-07-29T06:29:46;100676.66;;;17.84;98.21
71976;BME280;68326;52.124;5.424;2023-07-29T06:32:12;100687.19;;;17.84;99.01
71976;BME280;68326;52.124;5.424;2023-07-29T06:34:38;100688.50;;;17.79;98.88
71976;BME280;68326;52.124;5.424;2023-07-29T06:37:05;100690.16;;;17.80;99.83
71976;BME280;68326;52.124;5.424;2023-07-29T06:39:33;100693.03;;;17.88;99.31
71976;BME280;68326;52.124;5.424;2023-07-29T06:41:59;100695.28;;;17.92;99.23
71976;BME280;68326;52.124;5.424;2023-07-29T06:44:26;100688.66;;;17.98;98.37
71976;BME280;68326;52.124;5.424;2023-07-29T06:46:52;100684.66;;;18.04;99.28
71976;BME280;68326;52.124;5.424;2023-07-29T06:49:19;100697.59;;;18.07;99.08
71976;BME280;68326;52.124;5.424;2023-07-29T06:51:46;100695.66;;;18.09;98.62
71976;BME280;68326;52.124;5.424;2023-07-29T06:54:12;100701.13;;;18.17;97.82
71976;BME280;68326;52.124;5.424;2023-07-29T06:56:39;100701.72;;;18.30;97.21
71976;BME280;68326;52.124;5.424;2023-07-29T06:59:05;100695.78;;;18.38;97.04
71976;BME280;68326;52.124;5.424;2023-07-29T07:01:31;100694.44;;;18.44;97.32
71976;BME280;68326;52.124;5.424;2023-07-29T07:03:58;100701.91;;;18.39;96.72
71976;BME280;68326;52.124;5.424;2023-07-29T07:06:25;100703.03;;;18.36;96.96
71976;BME280;68326;52.124;5.424;2023-07-29T07:08:52;100706.31;;;18.38;96.95
71976;BME280;68326;52.124;5.424;2023-07-29T07:11:18;100702.03;;;18.37;96.77
71976;BME280;68326;52.124;5.424;2023-07-29T07:13:45;100697.41;;;18.29;96.88
71976;BME280;68326;52.124;5.424;2023-07-29T07:16:12;100705.72;;;18.25;96.94
71976;BME280;68326;52.124;5.424;2023-07-29T07:18:38;100699.63;;;18.24;97.48
71976;BME280;68326;52.124;5.424;2023-07-29T07:21:05;100702.25;;;18.24;97.68
71976;BME280;68326;52.124;5.424;2023-07-29T07:23:31;100706.00;;;18.22;97.30
71976;BME280;68326;52.124;5.424;2023-07-29T07:25:58;100713.75;;;18.23;97.94
71976;BME280;68326;52.124;5.424;2023-07-29T07:28:24;100719.72;;;18.25;97.97
71976;BME280;68326;52.124;5.424;2023-07-29T07:30:51;100715.31;;;18.26;97.77
71976;BME280;68326;52.124;5.424;2023-07-29T07:33:17;100718.50;;;18.29;98.12
71976;BME280;68326;52.124;5.424;2023-07-29T07:35:44;100720.47;;;18.37;97.70
71976;BME280;68326;52.124;5.424;2023-07-29T07:38:11;100710.53;;;18.41;98.00
71976;BME280;68326;52.124;5.424;2023-07-29T07:40:37;100715.97;;;18.49;97.96
71976;BME280;68326;52.124;5.424;2023-07-29T07:43:04;100719.69;;;18.46;97.19
71976;BME280;68326;52.124;5.424;2023-07-29T07:45:32;100718.03;;;18.45;97.59
71976;BME280;68326;52.124;5.424;2023-07-29T07:47:58;100718.91;;;18.56;97.38
71976;BME280;68326;52.124;5.424;2023-07-29T07:50:25;100723.25;;;18.66;97.76
71976;BME280;68326;52.124;5.424;2023-07-29T07:52:54;100713.84;;;18.73;95.72
71976;BME280;68326;52.124;5.424;2023-07-29T07:55:21;100719.94;;;18.74;95.26
71976;BME280;68326;52.124;5.424;2023-07-29T07:57:47;100705.69;;;18.77;95.38
71976;BME280;68326;52.124;5.424;2023-07-29T08:00:14;100712.22;;;18.82;95.00
71976;BME280;68326;52.124;5.424;2023-07-29T08:02:43;100709.88;;;18.79;95.29
71976;BME280;68326;52.124;5.424;2023-07-29T08:05:10;100719.19;;;18.83;95.66
71976;BME280;68326;52.124;5.424;2023-07-29T08:07:37;100723.47;;;18.84;94.60
71976;BME280;68326;52.124;5.424;2023-07-29T08:10:03;100724.47;;;18.83;94.37
71976;BME280;68326;52.124;5.424;2023-07-29T08:12:30;100721.63;;;19.15;95.18
71976;BME280;68326;52.124;5.424;2023-07-29T08:14:56;100723.34;;;19.36;92.17
71976;BME280;68326;52.124;5.424;2023-07-29T08:17:23;100720.69;;;19.36;90.29
71976;BME280;68326;52.124;5.424;2023-07-29T08:19:49;100711.78;;;19.37;91.27
71976;BME280;68326;52.124;5.424;2023-07-29T08:22:16;100716.66;;;19.51;91.53
71976;BME280;68326;52.124;5.424;2023-07-29T08:24:43;100710.41;;;19.62;90.22
71976;BME280;68326;52.124;5.424;2023-07-29T08:27:10;100716.56;;;19.72;91.41
71976;BME280;68326;52.124;5.424;2023-07-29T08:29:36;100721.38;;;19.87;87.30
71976;BME280;68326;52.124;5.424;2023-07-29T08:32:03;100720.44;;;19.78;88.99
71976;BME280;68326;52.124;5.424;2023-07-29T08:34:29;100718.34;;;19.72;87.34
71976;BME280;68326;52.124;5.424;2023-07-29T08:36:56;100719.03;;;19.64;88.29
71976;BME280;68326;52.124;5.424;2023-07-29T08:39:23;100725.97;;;19.55;88.50
71976;BME280;68326;52.124;5.424;2023-07-29T08:41:51;100723.44;;;19.44;87.96
71976;BME280;68326;52.124;5.424;2023-07-29T08:44:30;100717.63;;;19.41;89.23
71976;BME280;68326;52.124;5.424;2023-07-29T08:46:56;100715.13;;;19.39;89.75
71976;BME280;68326;52.124;5.424;2023-07-29T08:49:24;100715.81;;;19.41;89.13
71976;BME280;68326;52.124;5.424;2023-07-29T08:51:53;100709.88;;;19.49;88.72
71976;BME280;68326;52.124;5.424;2023-07-29T08:54:20;100725.41;;;19.52;87.20
71976;BME280;68326;52.124;5.424;2023-07-29T08:56:46;100730.00;;;19.50;88.00
71976;BME280;68326;52.124;5.424;2023-07-29T08:59:13;100717.19;;;19.55;87.88
71976;BME280;68326;52.124;5.424;2023-07-29T09:01:41;100724.03;;;19.58;87.51
71976;BME280;68326;52.124;5.424;2023-07-29T09:04:07;100719.72;;;19.56;86.15
71976;BME280;68326;52.124;5.424;2023-07-29T09:06:35;100719.72;;;19.56;87.97
71976;BME280;68326;52.124;5.424;2023-07-29T09:09:02;100730.41;;;19.55;87.11
71976;BME280;68326;52.124;5.424;2023-07-29T09:11:29;100733.31;;;19.52;87.56
71976;BME280;68326;52.124;5.424;2023-07-29T09:13:56;100729.44;;;19.56;88.70
71976;BME280;68326;52.124;5.424;2023-07-29T09:16:24;100728.88;;;20.01;87.20
71976;BME280;68326;52.124;5.424;2023-07-29T09:18:51;100725.34;;;20.30;84.98
71976;BME280;68326;52.124;5.424;2023-07-29T09:21:24;100714.22;;;20.26;83.70
71976;BME280;68326;52.124;5.424;2023-07-29T09:23:53;100723.03;;;20.17;83.11
71976;BME280;68326;52.124;5.424;2023-07-29T09:26:27;100726.75;;;20.14;84.74
71976;BME280;68326;52.124;5.424;2023-07-29T09:28:56;100718.97;;;20.23;84.38
71976;BME280;68326;52.124;5.424;2023-07-29T09:31:24;100721.59;;;20.32;84.94
71976;BME280;68326;52.124;5.424;2023-07-29T09:34:03;100725.50;;;20.28;83.64
71976;BME280;68326;52.124;5.424;2023-07-29T09:36:31;100719.69;;;20.15;84.02
71976;BME280;68326;52.124;5.424;2023-07-29T09:38:58;100719.13;;;20.11;83.79
71976;BME280;68326;52.124;5.424;2023-07-29T09:41:29;100726.06;;;20.12;83.74
71976;BME280;68326;52.124;5.424;2023-07-29T09:44:00;100729.41;;;20.14;84.20
71976;BME280;68326;52.124;5.424;2023-07-29T09:46:36;100725.50;;;20.28;83.41
71976;BME280;68326;52.124;5.424;2023-07-29T09:49:05;100719.22;;;20.29;83.50
71976;BME280;68326;52.124;5.424;2023-07-29T09:51:39;100723.69;;;20.29;82.72
71976;BME280;68326;52.124;5.424;2023-07-29T09:54:06;100724.97;;;20.15;83.25
71976;BME280;68326;52.124;5.424;2023-07-29T09:56:33;100725.69;;;19.98;84.91
71976;BME280;68326;52.124;5.424;2023-07-29T09:59:05;100732.53;;;19.81;86.72
71976;BME280;68326;52.124;5.424;2023-07-29T10:01:31;100738.47;;;19.63;88.23
71976;BME280;68326;52.124;5.424;2023-07-29T10:03:59;100738.19;;;19.47;91.54
71976;BME280;68326;52.124;5.424;2023-07-29T10:06:28;100745.94;;;19.29;93.08
71976;BME280;68326;52.124;5.424;2023-07-29T10:08:56;100748.00;;;19.15;94.13
71976;BME280;68326;52.124;5.424;2023-07-29T10:11:22;100744.22;;;18.99;97.18
71976;BME280;68326;52.124;5.424;2023-07-29T10:13:51;100739.75;;;18.89;97.73
71976;BME280;68326;52.124;5.424;2023-07-29T10:16:32;100734.47;;;18.89;99.62
71976;BME280;68326;52.124;5.424;2023-07-29T10:18:59;100735.03;;;18.93;99.71
71976;BME280;68326;52.124;5.424;2023-07-29T10:21:26;100733.91;;;18.95;100.00
71976;BME280;68326;52.124;5.424;2023-07-29T10:23:57;100733.66;;;18.99;100.00
71976;BME280;68326;52.124;5.424;2023-07-29T10:26:28;100735.06;;;19.03;100.00
71976;BME280;68326;52.124;5.424;2023-07-29T10:28:59;100738.53;;;19.03;100.00
71976;BME280;68326;52.124;5.424;2023-07-29T10:31:32;100746.28;;;18.95;100.00
71976;BME280;68326;52.124;5.424;2023-07-29T10:33:59;100745.72;;;18.91;100.00
71976;BME280;68326;52.124;5.424;2023-07-29T10:36:26;100747.78;;;18.98;100.00
71976;BME280;68326;52.124;5.424;2023-07-29T10:38:52;100751.06;;;19.11;100.00
71976;BME280;68326;52.124;5.424;2023-07-29T10:41:19;100754.25;;;19.24;100.00
71976;BME280;68326;52.124;5.424;2023-07-29T10:43:46;100756.78;;;19.26;100.00
71976;BME280;68326;52.124;5.424;2023-07-29T10:46:22;100751.66;;;19.34;100.00
71976;BME280;68326;52.124;5.424;2023-07-29T10:53:58;100737.06;;;19.30;100.00
71976;BME280;68326;52.124;5.424;2023-07-29T10:56:35;100727.34;;;19.30;100.00
71976;BME280;68326;52.124;5.424;2023-07-29T10:59:31;100740.25;;;19.33;100.00
71976;BME280;68326;52.124;5.424;2023-07-29T11:02:00;100743.47;;;19.37;100.00
71976;BME280;68326;52.124;5.424;2023-07-29T11:04:28;100749.84;;;19.44;100.00
71976;BME280;68326;52.124;5.424;2023-07-29T11:12:38;100756.25;;;19.61;100.00
71976;BME280;68326;52.124;5.424;2023-07-29T11:15:26;100756.53;;;19.58;100.00
71976;BME280;68326;52.124;5.424;2023-07-29T11:20:23;100754.72;;;19.39;99.33
71976;BME280;68326;52.124;5.424;2023-07-29T11:22:50;100757.34;;;19.39;98.94
71976;BME280;68326;52.124;5.424;2023-07-29T11:25:18;100764.00;;;19.33;98.71
71976;BME280;68326;52.124;5.424;2023-07-29T11:27:45;100763.03;;;19.34;99.42
71976;BME280;68326;52.124;5.424;2023-07-29T11:30:14;100761.50;;;19.32;100.00
71976;BME280;68326;52.124;5.424;2023-07-29T11:32:44;100759.69;;;19.32;100.00
71976;BME280;68326;52.124;5.424;2023-07-29T11:37:44;100756.75;;;19.16;100.00
71976;BME280;68326;52.124;5.424;2023-07-29T11:40:17;100753.53;;;19.12;99.71
71976;BME280;68326;52.124;5.424;2023-07-29T11:42:45;100752.25;;;18.97;100.00
71976;BME280;68326;52.124;5.424;2023-07-29T11:45:13;100755.16;;;18.94;100.00
71976;BME280;68326;52.124;5.424;2023-07-29T11:47:44;100755.81;;;18.86;100.00
71976;BME280;68326;52.124;5.424;2023-07-29T11:50:12;100758.59;;;18.85;100.00
71976;BME280;68326;52.124;5.424;2023-07-29T11:52:45;100757.09;;;18.92;100.00
71976;BME280;68326;52.124;5.424;2023-07-29T11:55:13;100752.53;;;18.94;100.00
71976;BME280;68326;52.124;5.424;2023-07-29T11:57:41;100761.56;;;19.01;100.00
71976;BME280;68326;52.124;5.424;2023-07-29T12:00:09;100760.59;;;19.02;100.00
71976;BME280;68326;52.124;5.424;2023-07-29T12:02:39;100759.63;;;19.03;100.00
71976;BME280;68326;52.124;5.424;2023-07-29T12:05:07;100760.09;;;19.18;100.00
71976;BME280;68326;52.124;5.424;2023-07-29T12:07:35;100761.63;;;19.40;100.00
71976;BME280;68326;52.124;5.424;2023-07-29T12:10:03;100756.81;;;19.65;100.00
71976;BME280;68326;52.124;5.424;2023-07-29T12:12:30;100746.69;;;19.99;100.00
71976;BME280;68326;52.124;5.424;2023-07-29T12:14:56;100753.03;;;20.26;98.75
71976;BME280;68326;52.124;5.424;2023-07-29T12:17:23;100749.47;;;20.54;99.50
71976;BME280;68326;52.124;5.424;2023-07-29T12:19:53;100742.00;;;20.60;95.80
71976;BME280;68326;52.124;5.424;2023-07-29T12:22:20;100748.09;;;20.50;93.88
71976;BME280;68326;52.124;5.424;2023-07-29T12:24:51;100753.63;;;20.67;93.84
71976;BME280;68326;52.124;5.424;2023-07-29T12:27:17;100741.25;;;20.67;95.19
71976;BME280;68326;52.124;5.424;2023-07-29T12:29:44;100746.28;;;20.61;93.80
71976;BME280;68326;52.124;5.424;2023-07-29T12:32:13;100747.81;;;20.53;92.02
71976;BME280;68326;52.124;5.424;2023-07-29T12:34:40;100738.38;;;20.41;92.38
71976;BME280;68326;52.124;5.424;2023-07-29T12:37:07;100741.06;;;20.31;92.92
71976;BME280;68326;52.124;5.424;2023-07-29T12:39:35;100740.91;;;20.43;94.06
71976;BME280;68326;52.124;5.424;2023-07-29T12:42:06;100738.75;;;20.56;93.85
71976;BME280;68326;52.124;5.424;2023-07-29T12:44:34;100743.78;;;20.59;93.03
71976;BME280;68326;52.124;5.424;2023-07-29T12:47:02;100742.53;;;20.53;91.05
71976;BME280;68326;52.124;5.424;2023-07-29T12:49:29;100743.00;;;20.29;92.03
71976;BME280;68326;52.124;5.424;2023-07-29T12:51:59;100747.06;;;20.24;93.04
71976;BME280;68326;52.124;5.424;2023-07-29T12:54:26;100750.53;;;20.34;93.00
71976;BME280;68326;52.124;5.424;2023-07-29T12:56:53;100748.41;;;20.47;93.42
71976;BME280;68326;52.124;5.424;2023-07-29T12:59:19;100748.31;;;20.76;91.17
71976;BME280;68326;52.124;5.424;2023-07-29T13:01:46;100748.84;;;20.80;90.92
71976;BME280;68326;52.124;5.424;2023-07-29T13:04:12;100737.91;;;20.65;91.36
71976;BME280;68326;52.124;5.424;2023-07-29T13:06:39;100749.03;;;20.96;90.40
71976;BME280;68326;52.124;5.424;2023-07-29T13:09:06;100739.19;;;21.16;88.06